Time;durP1;ratioP1;P1;durP2;ratioP2;P2;SDS_P1;SDS_P2;PMS_P1;PMS_P2;Temp;Humidity;BMP_temperature;BMP_pressure;BME280_temperature;BME280_humidity;BME280_pressure;Samples;Min_cycle;Max_cycle;Signal;HPM_P1;HPM_P2
2021/01/01 00:01:33;;;;;;;106.15;36.85;;;;;;;;;;4992425;28;20022;-73
2021/01/01 00:03:59;;;;;;;98.15;34.92;;;;;;;;;;4992073;28;20030;-73
2021/01/01 00:06:25;;;;;;;90.35;32.58;;;;;;;;;;4992202;28;20027;-66
2021/01/01 00:08:51;;;;;;;88.55;32.97;;;;;;;;;;4992428;28;20041;-65
2021/01/01 00:11:17;;;;;;;82.63;31.85;;;;;;;;;;4991599;28;20030;-73
2021/01/01 00:13:43;;;;;;;73.57;28.25;;;;;;;;;;4992012;28;20077;-65
2021/01/01 00:16:10;;;;;;;73.82;25.60;;;;;;;;;;4992150;28;20495;-73
2021/01/01 00:18:36;;;;;;;61.30;22.38;;;;;;;;;;4992170;28;20049;-66
2021/01/01 00:21:03;;;;;;;102.63;37.20;;;;;;;;;;4992193;28;20116;-74
2021/01/01 00:23:29;;;;;;;105.50;35.38;;;;;;;;;;4992047;28;20039;-64
2021/01/01 00:25:55;;;;;;;96.80;37.97;;;;;;;;;;4993292;28;20482;-73
2021/01/01 00:28:21;;;;;;;85.90;34.05;;;;;;;;;;4976160;28;20125;-73
2021/01/01 00:30:47;;;;;;;98.30;36.95;;;;;;;;;;4992180;28;20030;-74
2021/01/01 00:33:13;;;;;;;100.32;37.92;;;;;;;;;;4993262;28;20089;-74
2021/01/01 00:35:39;;;;;;;136.82;47.70;;;;;;;;;;4992035;28;20030;-66
2021/01/01 00:38:05;;;;;;;94.53;34.38;;;;;;;;;;4993186;28;20027;-66
2021/01/01 00:40:31;;;;;;;97.50;35.13;;;;;;;;;;4993176;28;20026;-67
2021/01/01 00:42:57;;;;;;;90.47;35.42;;;;;;;;;;4991889;28;20471;-74
2021/01/01 00:45:23;;;;;;;92.00;35.75;;;;;;;;;;4992089;28;20046;-70
2021/01/01 00:47:49;;;;;;;115.32;37.20;;;;;;;;;;4991911;28;20034;-66
2021/01/01 00:50:16;;;;;;;98.32;36.15;;;;;;;;;;5011331;28;20082;-73
2021/01/01 00:52:42;;;;;;;92.95;35.30;;;;;;;;;;5032424;28;20055;-74
2021/01/01 00:55:08;;;;;;;98.80;35.72;;;;;;;;;;5031055;28;20466;-67
2021/01/01 00:57:34;;;;;;;103.47;36.72;;;;;;;;;;5031168;28;20421;-67
2021/01/01 01:00:00;;;;;;;93.85;33.63;;;;;;;;;;5030969;28;20025;-68
2021/01/01 01:02:26;;;;;;;87.75;33.10;;;;;;;;;;5031021;28;20025;-74
2021/01/01 01:04:53;;;;;;;92.65;32.28;;;;;;;;;;5014690;28;20493;-74
2021/01/01 01:07:19;;;;;;;75.30;29.13;;;;;;;;;;5031110;28;20042;-65
2021/01/01 01:09:45;;;;;;;65.55;24.17;;;;;;;;;;5030854;28;20032;-73
2021/01/01 01:12:11;;;;;;;77.53;26.40;;;;;;;;;;5030967;28;20049;-76
2021/01/01 01:14:37;;;;;;;69.85;27.23;;;;;;;;;;5030992;28;20041;-66
2021/01/01 01:17:03;;;;;;;85.65;26.80;;;;;;;;;;5031000;28;20033;-67
2021/01/01 01:19:29;;;;;;;86.45;29.30;;;;;;;;;;5025708;28;20084;-74
2021/01/01 01:21:56;;;;;;;73.78;28.83;;;;;;;;;;5011148;28;20662;-67
2021/01/01 01:24:22;;;;;;;78.03;27.95;;;;;;;;;;5015354;28;20054;-67
2021/01/01 01:26:48;;;;;;;80.25;26.77;;;;;;;;;;5015980;28;20079;-67
2021/01/01 01:29:15;;;;;;;54.10;21.33;;;;;;;;;;5016243;28;20038;-67
2021/01/01 01:31:41;;;;;;;52.90;18.08;;;;;;;;;;5016040;28;20038;-67
2021/01/01 01:34:07;;;;;;;43.72;18.05;;;;;;;;;;5015910;28;20050;-67
2021/01/01 01:36:34;;;;;;;58.92;22.13;;;;;;;;;;5015734;28;20446;-66
2021/01/01 01:39:00;;;;;;;71.15;27.30;;;;;;;;;;5014936;28;20386;-66
2021/01/01 01:41:26;;;;;;;81.35;30.23;;;;;;;;;;5014540;28;20084;-67
2021/01/01 01:43:52;;;;;;;77.68;29.90;;;;;;;;;;5015641;28;20479;-74
2021/01/01 01:46:19;;;;;;;84.30;30.35;;;;;;;;;;5015894;28;20029;-67
2021/01/01 01:48:45;;;;;;;85.90;29.70;;;;;;;;;;5014396;28;20533;-67
2021/01/01 01:51:12;;;;;;;75.57;29.25;;;;;;;;;;5015763;28;20076;-67
2021/01/01 01:53:43;;;;;;;70.75;25.60;;;;;;;;;;5014304;28;20038;-63
2021/01/01 01:56:09;;;;;;;81.80;25.85;;;;;;;;;;5015829;28;20509;-66
2021/01/01 01:58:36;;;;;;;72.25;27.55;;;;;;;;;;5015351;28;20105;-66
2021/01/01 02:01:03;;;;;;;68.55;25.65;;;;;;;;;;5014320;28;20050;-67
2021/01/01 02:03:30;;;;;;;82.72;27.45;;;;;;;;;;5015633;28;20034;-67
2021/01/01 02:05:57;;;;;;;81.75;26.80;;;;;;;;;;5015370;28;20030;-66
2021/01/01 02:08:23;;;;;;;100.07;29.67;;;;;;;;;;5015206;28;20121;-75
2021/01/01 02:10:51;;;;;;;66.18;24.50;;;;;;;;;;5014091;28;20021;-74
2021/01/01 02:13:17;;;;;;;57.10;20.70;;;;;;;;;;5013976;28;20029;-66
2021/01/01 02:15:43;;;;;;;63.28;20.75;;;;;;;;;;4997802;28;20038;-74
2021/01/01 02:18:09;;;;;;;76.05;24.95;;;;;;;;;;5013993;28;20427;-75
2021/01/01 02:20:36;;;;;;;74.10;26.15;;;;;;;;;;5014003;28;20038;-67
2021/01/01 02:23:02;;;;;;;73.15;23.77;;;;;;;;;;5013873;28;20032;-75
2021/01/01 02:25:30;;;;;;;59.78;23.17;;;;;;;;;;5013582;28;20053;-77
2021/01/01 02:27:58;;;;;;;69.30;24.27;;;;;;;;;;5015000;28;20053;-76
2021/01/01 02:30:24;;;;;;;86.82;28.40;;;;;;;;;;5013634;28;20497;-75
2021/01/01 02:32:51;;;;;;;73.35;25.17;;;;;;;;;;5015140;28;20123;-71
2021/01/01 02:35:17;;;;;;;86.43;28.98;;;;;;;;;;5012864;28;20601;-63
2021/01/01 02:37:43;;;;;;;77.97;24.52;;;;;;;;;;5014633;28;20475;-63
2021/01/01 02:40:09;;;;;;;68.05;23.30;;;;;;;;;;5014828;28;20025;-65
2021/01/01 02:42:35;;;;;;;50.83;19.60;;;;;;;;;;5014755;28;20131;-75
2021/01/01 02:45:02;;;;;;;49.28;18.13;;;;;;;;;;5013431;28;20033;-63
2021/01/01 02:47:28;;;;;;;56.63;16.20;;;;;;;;;;5014769;28;20153;-66
2021/01/01 02:49:54;;;;;;;47.92;17.98;;;;;;;;;;5013358;28;20045;-65
2021/01/01 02:52:20;;;;;;;54.50;16.83;;;;;;;;;;5014565;28;20053;-74
2021/01/01 02:54:47;;;;;;;60.78;17.23;;;;;;;;;;5013230;28;20502;-75
2021/01/01 02:57:13;;;;;;;56.70;17.58;;;;;;;;;;5013111;28;20070;-74
2021/01/01 02:59:39;;;;;;;47.15;16.60;;;;;;;;;;4996934;28;20030;-66
2021/01/01 03:02:06;;;;;;;39.67;13.95;;;;;;;;;;5012885;28;20471;-66
2021/01/01 03:04:32;;;;;;;43.55;16.45;;;;;;;;;;5014460;28;20026;-66
2021/01/01 03:06:58;;;;;;;39.05;14.02;;;;;;;;;;5014251;28;20029;-66
2021/01/01 03:09:24;;;;;;;55.17;15.68;;;;;;;;;;5012994;28;20021;-68
2021/01/01 03:11:50;;;;;;;47.78;15.63;;;;;;;;;;5012798;28;20422;-75
2021/01/01 03:14:16;;;;;;;31.15;13.00;;;;;;;;;;5013032;28;20042;-76
2021/01/01 03:16:43;;;;;;;47.13;16.63;;;;;;;;;;5014171;28;20106;-67
2021/01/01 03:19:09;;;;;;;54.13;16.30;;;;;;;;;;5014349;28;20036;-75
2021/01/01 03:21:35;;;;;;;48.88;16.92;;;;;;;;;;5014069;28;20037;-66
2021/01/01 03:24:02;;;;;;;49.78;16.23;;;;;;;;;;5013594;28;20042;-66
2021/01/01 03:26:28;;;;;;;52.45;14.30;;;;;;;;;;5013866;28;20080;-66
2021/01/01 03:28:54;;;;;;;49.13;15.02;;;;;;;;;;5012766;28;20026;-66
2021/01/01 03:31:20;;;;;;;47.80;14.52;;;;;;;;;;5012628;28;20032;-67
2021/01/01 03:33:46;;;;;;;35.30;13.48;;;;;;;;;;5013864;28;20037;-67
2021/01/01 03:36:13;;;;;;;35.28;13.07;;;;;;;;;;5013901;28;20105;-76
2021/01/01 03:38:39;;;;;;;44.15;14.30;;;;;;;;;;5012604;28;20057;-66
2021/01/01 03:41:05;;;;;;;37.13;12.45;;;;;;;;;;5012471;28;20033;-66
2021/01/01 03:43:31;;;;;;;40.78;14.43;;;;;;;;;;5012196;28;20026;-67
2021/01/01 03:45:57;;;;;;;46.90;13.73;;;;;;;;;;5013198;28;20032;-67
2021/01/01 03:48:23;;;;;;;36.92;13.43;;;;;;;;;;5012064;28;20515;-67
2021/01/01 03:50:50;;;;;;;43.88;14.25;;;;;;;;;;5013386;28;20514;-74
2021/01/01 03:53:16;;;;;;;39.17;13.73;;;;;;;;;;5012264;28;20042;-73
2021/01/01 03:55:43;;;;;;;40.47;13.68;;;;;;;;;;5013475;28;20079;-65
2021/01/01 03:58:09;;;;;;;41.92;14.95;;;;;;;;;;5012266;28;20497;-66
2021/01/01 04:00:36;;;;;;;34.33;13.95;;;;;;;;;;5013522;28;20030;-67
2021/01/01 04:03:02;;;;;;;50.50;13.82;;;;;;;;;;5013253;28;20024;-74
2021/01/01 04:05:28;;;;;;;44.28;14.02;;;;;;;;;;5013481;28;20030;-67
2021/01/01 04:07:54;;;;;;;43.60;14.30;;;;;;;;;;5013417;28;20030;-65
2021/01/01 04:10:21;;;;;;;48.88;14.88;;;;;;;;;;5013418;28;20026;-65
2021/01/01 04:12:47;;;;;;;49.08;15.20;;;;;;;;;;5011807;28;20038;-65
2021/01/01 04:15:13;;;;;;;38.45;12.38;;;;;;;;;;5012089;28;20044;-65
2021/01/01 04:17:39;;;;;;;33.45;12.98;;;;;;;;;;5013287;28;20026;-66
2021/01/01 04:20:06;;;;;;;33.72;13.73;;;;;;;;;;5011713;28;20068;-73
2021/01/01 04:22:32;;;;;;;37.47;12.07;;;;;;;;;;5013193;28;20044;-66
2021/01/01 04:24:58;;;;;;;41.67;13.15;;;;;;;;;;5011697;28;20042;-76
2021/01/01 04:27:24;;;;;;;46.53;12.93;;;;;;;;;;5013129;28;20335;-66
2021/01/01 04:29:51;;;;;;;36.53;12.65;;;;;;;;;;5011877;28;20026;-66
2021/01/01 04:32:17;;;;;;;33.40;11.70;;;;;;;;;;5012899;28;20500;-75
2021/01/01 04:34:43;;;;;;;26.08;10.23;;;;;;;;;;5012913;28;20136;-67
2021/01/01 04:37:10;;;;;;;33.88;12.27;;;;;;;;;;5013353;28;20073;-67
2021/01/01 04:39:36;;;;;;;42.97;13.02;;;;;;;;;;5013193;28;20034;-75
2021/01/01 04:42:02;;;;;;;25.88;10.48;;;;;;;;;;5013084;28;20374;-66
2021/01/01 04:44:29;;;;;;;31.20;11.60;;;;;;;;;;5012797;28;20516;-74
2021/01/01 04:46:56;;;;;;;21.42;9.18;;;;;;;;;;5011812;28;20052;-66
2021/01/01 04:49:22;;;;;;;33.60;12.18;;;;;;;;;;5011653;28;20033;-75
2021/01/01 04:51:49;;;;;;;32.42;7.75;;;;;;;;;;5013021;28;20021;-67
2021/01/01 04:54:17;;;;;;;32.72;10.95;;;;;;;;;;5011541;28;20030;-67
2021/01/01 04:56:47;;;;;;;28.75;10.52;;;;;;;;;;5011412;28;20069;-66
2021/01/01 04:59:17;;;;;;;27.13;11.23;;;;;;;;;;5014478;28;20487;-74
2021/01/01 05:01:44;;;;;;;27.80;10.82;;;;;;;;;;5015452;28;20022;-75
2021/01/01 05:04:10;;;;;;;32.30;10.23;;;;;;;;;;5016670;28;20041;-67
2021/01/01 05:06:36;;;;;;;34.30;10.50;;;;;;;;;;5016968;28;20410;-75
2021/01/01 05:09:06;;;;;;;31.10;10.90;;;;;;;;;;5015145;28;20026;-75
2021/01/01 05:11:32;;;;;;;31.65;11.63;;;;;;;;;;5015238;28;20117;-66
2021/01/01 05:13:59;;;;;;;36.92;12.95;;;;;;;;;;5016432;28;20546;-66
2021/01/01 05:16:26;;;;;;;29.60;11.10;;;;;;;;;;5015027;28;20434;-76
2021/01/01 05:18:53;;;;;;;32.90;11.50;;;;;;;;;;5015105;28;20116;-73
2021/01/01 05:21:26;;;;;;;40.78;12.00;;;;;;;;;;5016342;28;20440;-66
2021/01/01 05:23:54;;;;;;;35.30;11.98;;;;;;;;;;5015100;28;20042;-76
2021/01/01 05:26:25;;;;;;;30.48;11.30;;;;;;;;;;5014880;28;20081;-66
2021/01/01 05:28:51;;;;;;;30.45;11.10;;;;;;;;;;5015003;28;20117;-67
2021/01/01 05:31:18;;;;;;;24.02;10.07;;;;;;;;;;5015984;28;20034;-73
2021/01/01 05:33:51;;;;;;;27.55;12.05;;;;;;;;;;5016081;28;20034;-67
2021/01/01 05:36:25;;;;;;;27.10;10.48;;;;;;;;;;5014901;28;20385;-77
2021/01/01 05:38:52;;;;;;;25.17;10.85;;;;;;;;;;5016074;28;20388;-76
2021/01/01 05:41:28;;;;;;;35.30;11.90;;;;;;;;;;5014746;28;20030;-77
2021/01/01 05:44:05;;;;;;;32.65;10.75;;;;;;;;;;5014858;28;20030;-67
2021/01/01 05:46:31;;;;;;;37.08;12.10;;;;;;;;;;5014538;28;20030;-66
2021/01/01 05:49:04;;;;;;;38.92;11.98;;;;;;;;;;5015905;28;20026;-66
2021/01/01 05:51:30;;;;;;;40.40;11.45;;;;;;;;;;5014484;28;20084;-76
2021/01/01 05:54:10;;;;;;;30.13;11.10;;;;;;;;;;5015471;28;20098;-76
2021/01/01 05:56:38;;;;;;;30.73;12.02;;;;;;;;;;5014401;28;20037;-67
2021/01/01 05:59:04;;;;;;;32.35;11.70;;;;;;;;;;5014341;28;20029;-69
2021/01/01 06:01:34;;;;;;;33.28;12.73;;;;;;;;;;5015834;28;20045;-66
2021/01/01 06:04:00;;;;;;;38.97;11.93;;;;;;;;;;5015831;28;20022;-67
2021/01/01 06:06:27;;;;;;;33.92;11.57;;;;;;;;;;5015339;28;20066;-66
2021/01/01 06:08:53;;;;;;;29.52;11.70;;;;;;;;;;5013728;28;20026;-74
2021/01/01 06:11:21;;;;;;;35.05;10.88;;;;;;;;;;5014820;28;20429;-70
2021/01/01 06:13:50;;;;;;;33.45;11.88;;;;;;;;;;5013987;28;20533;-66
2021/01/01 06:16:21;;;;;;;31.60;11.75;;;;;;;;;;5013928;28;20025;-73
2021/01/01 06:18:50;;;;;;;35.85;11.55;;;;;;;;;;4997757;28;20108;-67
2021/01/01 06:21:30;;;;;;;31.45;12.82;;;;;;;;;;5015255;28;20025;-67
2021/01/01 06:23:57;;;;;;;29.33;11.98;;;;;;;;;;4997652;28;20045;-74
2021/01/01 06:26:23;;;;;;;33.83;12.63;;;;;;;;;;5013978;28;20446;-65
2021/01/01 06:28:49;;;;;;;35.13;13.00;;;;;;;;;;5015375;28;20026;-63
2021/01/01 06:31:15;;;;;;;25.80;12.43;;;;;;;;;;5013756;28;20026;-65
2021/01/01 06:33:45;;;;;;;33.42;12.80;;;;;;;;;;5013563;28;20042;-66
2021/01/01 06:36:29;;;;;;;33.83;12.20;;;;;;;;;;4996525;28;20083;-76
2021/01/01 06:38:55;;;;;;;31.25;11.52;;;;;;;;;;4994164;28;20038;-72
2021/01/01 06:41:40;;;;;;;34.90;11.70;;;;;;;;;;4994072;28;20037;-73
2021/01/01 06:44:06;;;;;;;24.58;10.82;;;;;;;;;;5001631;28;20537;-72
2021/01/01 06:46:33;;;;;;;36.22;12.63;;;;;;;;;;5002920;28;20384;-74
2021/01/01 06:48:59;;;;;;;33.58;12.25;;;;;;;;;;5004636;28;20375;-73
2021/01/01 06:51:28;;;;;;;29.05;11.68;;;;;;;;;;5003246;28;20019;-74
2021/01/01 06:53:54;;;;;;;28.40;12.20;;;;;;;;;;5001584;28;20095;-73
2021/01/01 06:56:20;;;;;;;30.73;12.23;;;;;;;;;;5004828;28;20418;-73
2021/01/01 06:58:46;;;;;;;26.02;10.80;;;;;;;;;;5005337;28;20496;-65
2021/01/01 07:01:16;;;;;;;38.35;11.02;;;;;;;;;;5000943;28;20058;-69
2021/01/01 07:03:42;;;;;;;25.88;11.18;;;;;;;;;;5007527;28;20048;-68
2021/01/01 07:06:09;;;;;;;32.85;10.95;;;;;;;;;;5013252;28;20433;-73
2021/01/01 07:08:41;;;;;;;25.63;10.60;;;;;;;;;;5014197;28;20117;-76
2021/01/01 07:11:10;;;;;;;33.00;11.37;;;;;;;;;;5013147;28;20109;-78
2021/01/01 07:13:49;;;;;;;26.67;11.63;;;;;;;;;;5012908;28;20038;-78
2021/01/01 07:16:20;;;;;;;25.17;10.82;;;;;;;;;;5013087;28;20026;-66
2021/01/01 07:18:46;;;;;;;29.45;11.50;;;;;;;;;;5012565;28;20068;-82
2021/01/01 07:21:14;;;;;;;30.15;10.88;;;;;;;;;;5014619;28;20036;-85
2021/01/01 07:23:41;;;;;;;27.92;10.75;;;;;;;;;;5012747;28;20486;-84
2021/01/01 07:26:08;;;;;;;52.20;19.02;;;;;;;;;;5013027;28;20037;-83
2021/01/01 07:28:34;;;;;;;31.92;11.90;;;;;;;;;;5014266;28;20486;-67
2021/01/01 07:31:01;;;;;;;37.65;15.65;;;;;;;;;;5012760;28;20506;-78
2021/01/01 07:33:33;;;;;;;33.22;12.68;;;;;;;;;;5013657;28;20036;-72
2021/01/01 07:36:00;;;;;;;29.50;10.38;;;;;;;;;;5013875;28;20036;-78
2021/01/01 07:38:27;;;;;;;25.38;10.75;;;;;;;;;;5013794;28;20058;-74
2021/01/01 07:40:54;;;;;;;34.95;11.57;;;;;;;;;;5013749;28;20037;-67
2021/01/01 07:43:21;;;;;;;28.73;10.88;;;;;;;;;;5013545;28;20026;-64
2021/01/01 07:45:48;;;;;;;31.90;12.02;;;;;;;;;;5013956;28;20017;-84
2021/01/01 07:48:14;;;;;;;31.13;10.50;;;;;;;;;;5012468;28;20033;-75
2021/01/01 07:50:41;;;;;;;39.95;15.15;;;;;;;;;;5004772;28;20023;-77
2021/01/01 07:53:11;;;;;;;34.75;13.30;;;;;;;;;;5004812;28;20080;-73
2021/01/01 07:55:38;;;;;;;30.38;10.43;;;;;;;;;;4993861;28;20034;-72
2021/01/01 07:58:07;;;;;;;34.05;12.27;;;;;;;;;;4993122;28;20039;-80
2021/01/01 08:00:34;;;;;;;39.28;13.10;;;;;;;;;;4992454;28;20030;-65
2021/01/01 08:03:01;;;;;;;31.02;13.05;;;;;;;;;;4992064;28;20418;-69
2021/01/01 08:05:28;;;;;;;28.15;12.07;;;;;;;;;;4992586;28;20073;-74
2021/01/01 08:07:54;;;;;;;33.45;12.45;;;;;;;;;;4993560;28;20030;-68
2021/01/01 08:10:33;;;;;;;36.80;12.80;;;;;;;;;;4992291;28;20077;-78
2021/01/01 08:12:59;;;;;;;30.77;10.30;;;;;;;;;;4999108;28;20501;-64
2021/01/01 08:15:29;;;;;;;32.58;11.15;;;;;;;;;;4996029;28;20422;-63
2021/01/01 08:17:55;;;;;;;33.30;11.77;;;;;;;;;;5002427;28;20026;-64
2021/01/01 08:20:21;;;;;;;31.88;11.27;;;;;;;;;;5008188;28;20044;-64
2021/01/01 08:22:51;;;;;;;32.47;11.55;;;;;;;;;;5011752;28;20022;-67
2021/01/01 08:25:18;;;;;;;29.45;11.05;;;;;;;;;;5012848;28;20061;-75
2021/01/01 08:27:45;;;;;;;27.83;10.85;;;;;;;;;;5011896;28;20044;-65
2021/01/01 08:30:11;;;;;;;29.65;10.75;;;;;;;;;;5011869;28;20025;-65
2021/01/01 08:32:39;;;;;;;26.80;9.63;;;;;;;;;;5012070;28;20034;-66
2021/01/01 08:35:09;;;;;;;29.67;10.07;;;;;;;;;;5015957;28;20040;-65
2021/01/01 08:37:35;;;;;;;28.55;9.52;;;;;;;;;;5016774;28;20022;-66
2021/01/01 08:40:05;;;;;;;29.60;11.38;;;;;;;;;;5015648;28;20036;-65
2021/01/01 08:42:35;;;;;;;30.98;10.13;;;;;;;;;;5000563;28;20083;-69
2021/01/01 08:45:05;;;;;;;32.72;10.90;;;;;;;;;;5000310;28;20419;-65
2021/01/01 08:47:44;;;;;;;31.48;10.15;;;;;;;;;;5003800;28;20116;-65
2021/01/01 08:50:37;;;;;;;32.40;11.00;;;;;;;;;;5029024;28;20495;-67
2021/01/01 08:53:04;;;;;;;27.33;9.68;;;;;;;;;;4986820;28;20038;-70
2021/01/01 08:55:31;;;;;;;34.47;10.50;;;;;;;;;;5006506;28;20061;-66
2021/01/01 08:58:16;;;;;;;29.80;10.45;;;;;;;;;;5006446;28;20027;-67
2021/01/01 09:00:45;;;;;;;34.80;10.07;;;;;;;;;;5007296;28;20083;-66
2021/01/01 09:03:11;;;;;;;27.77;10.25;;;;;;;;;;5004603;28;20076;-65
2021/01/01 09:05:38;;;;;;;30.77;10.48;;;;;;;;;;5016706;28;20033;-67
2021/01/01 09:08:14;;;;;;;30.10;10.75;;;;;;;;;;5016152;28;20032;-66
2021/01/01 09:10:41;;;;;;;27.58;9.73;;;;;;;;;;4994388;28;20044;-67
2021/01/01 09:13:13;;;;;;;32.33;10.43;;;;;;;;;;5002444;28;20085;-67
2021/01/01 09:15:39;;;;;;;28.42;10.45;;;;;;;;;;4995602;28;20030;-67
2021/01/01 09:18:06;;;;;;;27.85;9.25;;;;;;;;;;4994734;28;20023;-77
2021/01/01 09:20:33;;;;;;;26.02;8.77;;;;;;;;;;5000160;28;20187;-65
2021/01/01 09:23:01;;;;;;;37.78;11.73;;;;;;;;;;5020715;28;20548;-68
2021/01/01 09:25:28;;;;;;;35.20;10.68;;;;;;;;;;5010381;28;20045;-66
2021/01/01 09:27:54;;;;;;;36.65;10.98;;;;;;;;;;5000401;28;20030;-68
2021/01/01 09:30:21;;;;;;;29.98;11.43;;;;;;;;;;5017023;28;20394;-67
2021/01/01 09:32:50;;;;;;;27.60;9.85;;;;;;;;;;5014441;28;20411;-66
2021/01/01 09:35:16;;;;;;;30.30;10.90;;;;;;;;;;5008832;28;20041;-67
2021/01/01 09:37:46;;;;;;;32.60;10.38;;;;;;;;;;5019359;28;20024;-68
2021/01/01 09:40:13;;;;;;;30.10;9.50;;;;;;;;;;5035666;28;20033;-66
2021/01/01 09:42:39;;;;;;;31.40;10.23;;;;;;;;;;5035595;28;20045;-65
2021/01/01 09:45:06;;;;;;;31.80;11.70;;;;;;;;;;5035911;28;20092;-66
2021/01/01 09:47:32;;;;;;;31.02;10.63;;;;;;;;;;5035652;28;20033;-66
2021/01/01 09:49:59;;;;;;;29.42;9.35;;;;;;;;;;5025872;28;20483;-67
2021/01/01 09:52:26;;;;;;;28.73;9.77;;;;;;;;;;5003956;28;20036;-65
2021/01/01 09:54:52;;;;;;;24.13;8.98;;;;;;;;;;5004275;28;20061;-67
2021/01/01 09:57:19;;;;;;;21.38;8.50;;;;;;;;;;5004145;28;20046;-65
2021/01/01 09:59:45;;;;;;;25.92;9.13;;;;;;;;;;5005722;28;20026;-65
2021/01/01 10:02:12;;;;;;;19.92;8.27;;;;;;;;;;5003817;28;20022;-64
2021/01/01 10:04:39;;;;;;;27.10;8.57;;;;;;;;;;5004300;28;20022;-66
2021/01/01 10:07:06;;;;;;;27.88;10.07;;;;;;;;;;5005492;28;20029;-65
2021/01/01 10:09:33;;;;;;;26.75;7.88;;;;;;;;;;5003814;28;20041;-66
2021/01/01 10:12:02;;;;;;;28.98;10.02;;;;;;;;;;5002852;28;20022;-65
2021/01/01 10:14:29;;;;;;;27.27;8.77;;;;;;;;;;5012782;28;20081;-66
2021/01/01 10:16:55;;;;;;;28.90;9.13;;;;;;;;;;5014195;28;20026;-65
2021/01/01 10:19:21;;;;;;;23.80;8.35;;;;;;;;;;5008701;28;20026;-76
2021/01/01 10:21:47;;;;;;;30.02;9.75;;;;;;;;;;5005803;28;20034;-69
2021/01/01 10:24:13;;;;;;;24.15;9.38;;;;;;;;;;4994038;28;20046;-75
2021/01/01 10:26:40;;;;;;;32.00;10.60;;;;;;;;;;4995414;28;20105;-77
2021/01/01 10:29:06;;;;;;;26.70;8.30;;;;;;;;;;5006484;28;20030;-71
2021/01/01 10:31:32;;;;;;;32.80;9.88;;;;;;;;;;5033564;28;20524;-77
2021/01/01 10:33:58;;;;;;;25.17;9.18;;;;;;;;;;5033428;28;20029;-76
2021/01/01 10:36:24;;;;;;;30.27;9.00;;;;;;;;;;5034625;28;20039;-74
2021/01/01 10:38:50;;;;;;;28.70;8.55;;;;;;;;;;5033382;28;20385;-68
2021/01/01 10:41:16;;;;;;;33.00;10.32;;;;;;;;;;5034543;28;20457;-65
2021/01/01 10:43:42;;;;;;;30.13;10.02;;;;;;;;;;5034445;28;20022;-68
2021/01/01 10:46:08;;;;;;;25.60;8.77;;;;;;;;;;5033152;28;20355;-66
2021/01/01 10:48:34;;;;;;;24.60;9.13;;;;;;;;;;5033036;28;20022;-67
2021/01/01 10:51:00;;;;;;;27.17;9.43;;;;;;;;;;5034228;28;20112;-69
2021/01/01 10:53:26;;;;;;;31.75;11.48;;;;;;;;;;5032999;28;20029;-69
2021/01/01 10:55:53;;;;;;;25.58;9.13;;;;;;;;;;5032295;28;20489;-66
2021/01/01 10:58:25;;;;;;;26.23;8.68;;;;;;;;;;5015704;28;20026;-68
2021/01/01 11:00:52;;;;;;;25.70;9.43;;;;;;;;;;5013171;28;20144;-68
2021/01/01 11:03:18;;;;;;;31.25;9.77;;;;;;;;;;5012517;28;20044;-65
2021/01/01 11:05:44;;;;;;;34.78;8.90;;;;;;;;;;5007399;28;20561;-67
2021/01/01 11:08:11;;;;;;;31.83;10.07;;;;;;;;;;5005186;28;20467;-69
2021/01/01 11:10:37;;;;;;;24.98;9.13;;;;;;;;;;5011306;28;20136;-67
2021/01/01 11:13:04;;;;;;;25.83;9.02;;;;;;;;;;5013931;28;20033;-65
2021/01/01 12:22:10;;;;;;;19.08;9.75;;;;;;;;;;5012666;28;20041;-72
2021/01/01 12:24:46;;;;;;;19.42;8.55;;;;;;;;;;5011810;28;20450;-71
2021/01/01 12:27:13;;;;;;;22.85;8.93;;;;;;;;;;4997097;28;20034;-68
2021/01/01 12:29:39;;;;;;;23.55;9.13;;;;;;;;;;5011786;28;20022;-74
2021/01/01 12:32:05;;;;;;;21.48;9.13;;;;;;;;;;5010170;28;20431;-66
2021/01/01 12:34:32;;;;;;;23.88;8.65;;;;;;;;;;5011820;28;20060;-65
2021/01/01 12:36:58;;;;;;;19.80;8.15;;;;;;;;;;5011882;28;20475;-67
2021/01/01 12:39:25;;;;;;;27.35;9.07;;;;;;;;;;5011777;28;20037;-71
2021/01/01 12:41:52;;;;;;;26.35;9.38;;;;;;;;;;5012950;28;20080;-74
2021/01/01 12:44:18;;;;;;;29.13;9.85;;;;;;;;;;5000129;28;20147;-74
2021/01/01 12:46:44;;;;;;;25.15;10.73;;;;;;;;;;4992129;28;20060;-69
2021/01/01 12:49:10;;;;;;;33.13;10.60;;;;;;;;;;4992216;28;20023;-73
2021/01/01 12:51:36;;;;;;;25.42;9.77;;;;;;;;;;4992154;28;20034;-65
2021/01/01 12:54:02;;;;;;;27.15;9.85;;;;;;;;;;4993660;28;20042;-68
2021/01/01 12:56:28;;;;;;;27.95;10.30;;;;;;;;;;4991951;28;20062;-67
2021/01/01 12:58:54;;;;;;;35.33;10.73;;;;;;;;;;4993600;28;20049;-73
2021/01/01 13:01:21;;;;;;;28.88;10.10;;;;;;;;;;4992012;28;20045;-69
2021/01/01 13:03:47;;;;;;;23.25;9.23;;;;;;;;;;4993276;28;20464;-73
2021/01/01 13:06:17;;;;;;;29.13;10.60;;;;;;;;;;5001700;28;20083;-71
2021/01/01 13:08:43;;;;;;;25.95;9.35;;;;;;;;;;5009223;28;20054;-73
2021/01/01 13:11:09;;;;;;;22.73;8.95;;;;;;;;;;4999846;28;20069;-72
2021/01/01 13:13:35;;;;;;;30.63;10.23;;;;;;;;;;5001636;28;20176;-71
2021/01/01 13:16:01;;;;;;;20.85;9.00;;;;;;;;;;4997689;28;20026;-67
2021/01/01 13:18:28;;;;;;;31.95;10.20;;;;;;;;;;4993673;28;20054;-68
2021/01/01 13:20:54;;;;;;;30.52;9.52;;;;;;;;;;4997437;28;20046;-67
2021/01/01 13:23:20;;;;;;;25.95;10.10;;;;;;;;;;5001838;28;20893;-68
2021/01/01 13:25:47;;;;;;;36.53;12.32;;;;;;;;;;5002168;28;20579;-73
2021/01/01 13:28:13;;;;;;;29.33;10.77;;;;;;;;;;5000594;28;20378;-73
2021/01/01 13:30:39;;;;;;;27.98;10.65;;;;;;;;;;5003157;28;20030;-68
2021/01/01 13:33:05;;;;;;;27.15;9.52;;;;;;;;;;5012436;28;20034;-71
2021/01/01 13:35:31;;;;;;;22.42;9.25;;;;;;;;;;5008526;28;20061;-67
2021/01/01 13:37:57;;;;;;;27.35;10.05;;;;;;;;;;5014502;28;20056;-67
2021/01/01 13:40:24;;;;;;;23.88;9.38;;;;;;;;;;5016016;28;20044;-67
2021/01/01 13:42:50;;;;;;;24.40;9.88;;;;;;;;;;5015900;28;20038;-73
2021/01/01 13:45:17;;;;;;;25.55;9.90;;;;;;;;;;5014882;28;20030;-68
2021/01/01 13:47:43;;;;;;;21.48;8.95;;;;;;;;;;5014812;28;20022;-71
2021/01/01 13:50:10;;;;;;;21.63;8.63;;;;;;;;;;5014726;28;20541;-74
2021/01/01 13:52:36;;;;;;;25.77;9.05;;;;;;;;;;5015864;28;20475;-73
2021/01/01 13:55:03;;;;;;;24.73;9.18;;;;;;;;;;5014834;28;20057;-77
2021/01/01 13:57:29;;;;;;;22.40;9.38;;;;;;;;;;5015764;28;20054;-75
2021/01/01 13:59:56;;;;;;;28.95;9.25;;;;;;;;;;5015701;28;20030;-74
2021/01/01 14:02:22;;;;;;;24.83;9.48;;;;;;;;;;5015892;28;20022;-73
2021/01/01 14:04:48;;;;;;;25.77;10.00;;;;;;;;;;5014391;28;20108;-68
2021/01/01 14:07:14;;;;;;;26.30;8.52;;;;;;;;;;5015424;28;20057;-69
2021/01/01 14:09:40;;;;;;;25.63;10.05;;;;;;;;;;5014597;28;20116;-73
2021/01/01 14:12:07;;;;;;;24.48;10.40;;;;;;;;;;5014182;28;20026;-68
2021/01/01 14:14:34;;;;;;;28.48;10.32;;;;;;;;;;5015031;28;20053;-68
2021/01/01 14:17:00;;;;;;;27.83;10.40;;;;;;;;;;5007885;28;20034;-74
2021/01/01 14:19:26;;;;;;;22.00;9.57;;;;;;;;;;5000309;28;20038;-73
2021/01/01 14:21:54;;;;;;;25.05;9.43;;;;;;;;;;5002635;28;20125;-65
2021/01/01 14:24:20;;;;;;;29.30;10.48;;;;;;;;;;4994326;28;20074;-67
2021/01/01 14:26:51;;;;;;;23.73;9.65;;;;;;;;;;4999555;28;20026;-75
2021/01/01 14:29:17;;;;;;;29.98;10.40;;;;;;;;;;5007694;28;20047;-74
2021/01/01 14:31:44;;;;;;;22.30;10.02;;;;;;;;;;5009514;28;20456;-72
2021/01/01 14:34:10;;;;;;;27.25;10.50;;;;;;;;;;5009980;28;20387;-66
2021/01/01 14:36:37;;;;;;;28.92;10.93;;;;;;;;;;5015025;28;20108;-74
2021/01/01 14:39:07;;;;;;;31.38;10.98;;;;;;;;;;5030485;28;20033;-69
2021/01/01 14:41:35;;;;;;;30.85;11.13;;;;;;;;;;5034615;28;20022;-73
2021/01/01 14:44:02;;;;;;;32.85;10.60;;;;;;;;;;5034684;28;20081;-70
2021/01/01 14:46:28;;;;;;;22.40;8.65;;;;;;;;;;5026165;28;20033;-77
2021/01/01 14:48:54;;;;;;;28.42;10.73;;;;;;;;;;5013317;28;20033;-75
2021/01/01 14:51:21;;;;;;;29.88;10.50;;;;;;;;;;5013300;28;20022;-68
2021/01/01 14:53:50;;;;;;;27.95;9.85;;;;;;;;;;5014570;28;20087;-74
2021/01/01 14:56:17;;;;;;;24.88;9.82;;;;;;;;;;5013352;28;20032;-67
2021/01/01 14:58:43;;;;;;;28.42;11.35;;;;;;;;;;5014650;28;20467;-67
2021/01/01 15:01:10;;;;;;;26.40;10.55;;;;;;;;;;5014352;28;20069;-75
2021/01/01 15:03:36;;;;;;;32.08;10.68;;;;;;;;;;5014585;28;20105;-68
2021/01/01 15:06:02;;;;;;;31.80;11.48;;;;;;;;;;5014325;28;20025;-76
2021/01/01 15:08:30;;;;;;;24.73;9.43;;;;;;;;;;4998090;28;20032;-64
2021/01/01 15:10:56;;;;;;;24.35;9.50;;;;;;;;;;5022766;28;20022;-63
2021/01/01 15:13:23;;;;;;;24.30;9.60;;;;;;;;;;5024558;28;20034;-65
2021/01/01 15:15:49;;;;;;;25.00;9.55;;;;;;;;;;5033817;28;20111;-64
2021/01/01 15:18:16;;;;;;;26.50;9.55;;;;;;;;;;5018434;28;20026;-65
2021/01/01 15:20:42;;;;;;;31.27;12.07;;;;;;;;;;5012949;28;20478;-65
2021/01/01 15:23:10;;;;;;;37.42;12.10;;;;;;;;;;5014017;28;20439;-65
2021/01/01 15:25:36;;;;;;;36.67;12.18;;;;;;;;;;5013543;28;20404;-65